May 28, 2022

Time Code Weather Temp. Visibility Ceiling Wind METAR/SPECI
6:50 pm
V
48 °F 6¼ mi+ 6,200 ft 150° 150° 3 kt METAR ESNG 281650Z AUTO 15003KT 120V190 9999 SCT037/// BKN062/// 09/01 Q1001
6:20 pm
V
50 °F 6¼ mi+ 7,000 ft Var Var 3 kt METAR ESNG 281620Z AUTO VRB03KT 150V130 9999 SCT040/// BKN070/// 10/01 Q1001
5:50 pm
V
50 °F 6¼ mi+ - 160° 160° 6 kt METAR ESNG 281550Z AUTO 16006KT 130V200 9999 SCT035/// 10/02 Q1001
5:20 pm
V
50 °F 6¼ mi+ 3,700 ft 260° 260° 3 kt METAR ESNG 281520Z AUTO 26003KT 9999 OVC037/// 10/02 Q1000
4:50 pm
V
48 °F 6¼ mi+ 3,400 ft 280° 280° 4 kt METAR ESNG 281450Z AUTO 28004KT 250V310 9999 OVC034/// 09/02 Q1000
4:20 pm
V
46 °F 6¼ mi+ 7,000 ft Var Var 3 kt METAR ESNG 281420Z AUTO VRB03KT 9999 BKN070/// 08/03 Q0999
3:50 pm
V
46 °F 6¼ mi+ 7,400 ft Var Var 3 kt METAR ESNG 281350Z AUTO VRB03KT 9999 FEW012/// SCT034/// BKN074/// 08/02 Q0999 REDZ
3:20 pm
V
46 °F 6¼ mi+ 3,500 ft 030° 030° 8 kt METAR ESNG 281320Z AUTO 03008KT 340V070 9999 DZ FEW012/// BKN035/// OVC062/// 08/01 Q0999
2:50 pm
V
50 °F 6¼ mi+ - Var Var 5 kt METAR ESNG 281250Z AUTO VRB05KT 330V250 9999 FEW033/// SCT062/// 10/01 Q0998
2:20 pm
V
48 °F 6¼ mi+ 6,400 ft 110° 110° 7 kt METAR ESNG 281220Z AUTO 11007KT 9999 SCT032/// OVC064/// 09/02 Q0998
1:50 pm
M
46 °F 6¼ mi+ 2,600 ft 090° 090° 10 kt METAR ESNG 281150Z AUTO 09010KT 060V130 9999 -DZ BKN026/// OVC068/// 08/02 Q0998
1:20 pm
V
46 °F 6¼ mi+ 5,900 ft 090° 090° 6 kt METAR ESNG 281120Z AUTO 09006KT 020V150 9999 FEW044/// OVC059/// 08/02 Q0997
12:50 pm
V
46 °F 6¼ mi+ 6,100 ft 060° 060° 9 kt METAR ESNG 281050Z AUTO 06009KT 030V100 9999 FEW028/// BKN061/// 08/M00 Q0997
12:20 pm
V
45 °F 6¼ mi+ - 020° 020° 8 kt METAR ESNG 281020Z AUTO 02008KT 9999 FEW031/// SCT100/// 07/01 Q0996
11:50 am
V
45 °F 6¼ mi+ 11,000 ft 030° 030° 7 kt METAR ESNG 280950Z AUTO 03007KT 360V070 9999 SCT035/// BKN110/// 07/01 Q0996 REDZ
11:20 am
V
45 °F 6¼ mi+ 5,500 ft 350° 350° 9 kt METAR ESNG 280920Z AUTO 35009KT 310V030 9999 DZ SCT025/// BKN055/// OVC070/// 07/02 Q0996
10:50 am
M
45 °F 6¼ mi+ 2,400 ft 010° 010° 6 kt METAR ESNG 280850Z AUTO 01006KT 330V040 9999 BKN024/// BKN031/// OVC051/// 07/01 Q0996
10:20 am
V
45 °F 6¼ mi+ 19,000 ft 340° 340° 9 kt METAR ESNG 280820Z AUTO 34009KT 9999 SCT023/// BKN190/// 07/01 Q0995
9:50 am
V
43 °F 6¼ mi+ 3,300 ft 350° 350° 7 kt METAR ESNG 280750Z AUTO 35007KT 320V030 9999 SCT020/// BKN033/// BKN040/// 06/01 Q0995
9:20 am
M
41 °F 6¼ mi+ 1,900 ft 010° 010° 9 kt METAR ESNG 280720Z AUTO 01009KT 330V040 9999 -RA BKN019/// 05/01 Q0995 REUP
8:50 am
M
41 °F 6¼ mi+ 1,900 ft 340° 340° 9 kt METAR ESNG 280650Z AUTO 34009KT 290V020 9999 BKN019/// OVC025/// 05/01 Q0994
8:20 am
M
41 °F 6¼ mi+ 1,700 ft 340° 340° 11 kt METAR ESNG 280620Z AUTO 34011KT 9999 BKN017/// OVC022/// 05/01 Q0994
7:50 am
M
41 °F 6¼ mi+ 1,700 ft 350° 350° 11 kt METAR ESNG 280550Z AUTO 35011KT 9999 BKN017/// BKN026/// 05/00 Q0994
7:20 am
M
41 °F 6¼ mi+ 1,800 ft 360° 360° 11 kt METAR ESNG 280520Z AUTO 36011KT 9999 BKN018/// OVC086/// 05/01 Q0994
6:50 am
V
41 °F 6¼ mi+ 6,100 ft 350° 350° 11 kt METAR ESNG 280450Z AUTO 35011KT 9999 SCT016/// BKN061/// 05/02 Q0993
6:20 am
M
41 °F 6¼ mi+ 1,400 ft 330° 330° 9 kt METAR ESNG 280420Z AUTO 33009KT 9999 BKN014/// OVC064/// 05/02 Q0993
5:50 am
V
39 °F 6¼ mi+ - 340° 340° 10 kt METAR ESNG 280350Z AUTO 34010KT 9999 DZ FEW012/// SCT017/// 04/02 Q0993
5:20 am
V
39 °F 6¼ mi+ - 330° 330° 9 kt METAR ESNG 280320Z AUTO 33009KT 9999 DZ ///028 04/02 Q0993 REDZ
4:50 am
V
39 °F 6¼ mi+ - 340° 340° 10 kt METAR ESNG 280250Z AUTO 34010KT 9999 DZ ///030 04/02 Q0993
4:20 am
V
39 °F 6¼ mi+ 6,100 ft 320° 320° 9 kt METAR ESNG 280220Z AUTO 32009KT 9999 DZ FEW010/// SCT029/// OVC061/// 04/02 Q0993
3:50 am
I
39 °F 6¼ mi+ 900 ft 330° 330° 10 kt METAR ESNG 280150Z AUTO 33010KT 9999 DZ VV009 04/02 Q0993
3:20 am
V
41 °F 6¼ mi+ 6,600 ft 330° 330° 10 kt METAR ESNG 280120Z AUTO 33010KT 9999 FEW025/// SCT055/// BKN066/// 05/02 Q0993
2:50 am
V
41 °F 6¼ mi+ - 330° 330° 9 kt METAR ESNG 280050Z AUTO 33009KT 9999 -DZ FEW015/// SCT061/// 05/02 Q0993
2:20 am
M
41 °F 6¼ mi+ 1,400 ft 310° 310° 9 kt METAR ESNG 280020Z AUTO 31009KT 9999 OVC014/// 05/02 Q0993 REDZ
1:50 am
M
41 °F 6¼ mi+ 1,400 ft 310° 310° 9 kt METAR ESNG 272350Z AUTO 31009KT 9999 -DZ OVC014/// 05/02 Q0993
1:20 am
M
41 °F 6¼ mi+ 1,300 ft 320° 320° 10 kt METAR ESNG 272320Z AUTO 32010KT 9999 -DZ OVC013/// 05/02 Q0993 RESHUP
12:50 am
M
41 °F 6¼ mi+ 1,800 ft 320° 320° 9 kt METAR ESNG 272250Z AUTO 32009KT 290V350 9999 SCT015/// BKN018/// BKN038/// 05/02 Q0994
12:20 am
M
41 °F 6¼ mi+ 1,300 ft 330° 330° 10 kt METAR ESNG 272220Z AUTO 33010KT 9999 BKN013/// BKN068/// 05/02 Q0994 REUP

May 27, 2022

Time Code Weather Temp. Visibility Ceiling Wind METAR/SPECI
11:50 pm
M
41 °F 6¼ mi+ 1,300 ft 320° 320° 9 kt METAR ESNG 272150Z AUTO 32009KT 290V350 9999 OVC013/// 05/02 Q0994
11:20 pm
M
41 °F 6¼ mi+ 1,200 ft 340° 340° 9 kt METAR ESNG 272120Z AUTO 34009KT 9999 OVC012/// 05/02 Q0994
10:50 pm
M
41 °F 6¼ mi+ 1,200 ft 350° 350° 10 kt METAR ESNG 272050Z AUTO 35010KT 9999 OVC012/// 05/02 Q0995
10:20 pm
M
41 °F 6¼ mi+ 1,200 ft 340° 340° 12 kt METAR ESNG 272020Z AUTO 34012KT 300V010 9999 OVC012/// 05/02 Q0995 REDZ
9:50 pm
M
41 °F 6¼ mi+ 1,300 ft 340° 340° 9 kt METAR ESNG 271950Z AUTO 34009KT 9999 OVC013/// 05/02 Q0995 REUP
9:20 pm
M
41 °F 6¼ mi+ 1,100 ft 340° 340° 10 kt METAR ESNG 271920Z 34010KT 9999 OVC011 05/03 Q0995
8:50 pm
M
41 °F 6¼ mi+ 1,000 ft 350° 350° 11 kt METAR ESNG 271850Z 35011KT 320V040 9999 OVC010 05/03 Q0995
8:20 pm
M
41 °F 6¼ mi+ 1,100 ft 340° 340° 10 kt METAR ESNG 271820Z 34010KT 9999 OVC011 05/03 Q0995
7:50 pm
M
41 °F 6¼ mi+ 1,200 ft 340° 340° 9 kt METAR ESNG 271750Z AUTO 34009KT 9999 OVC012/// 05/03 Q0995
7:20 pm
I
41 °F 6¼ mi+ 900 ft 350° 350° 10 kt METAR ESNG 271720Z AUTO 35010KT 320V030 9999 OVC009/// 05/03 Q0995
6:50 pm
M
43 °F 6¼ mi+ 1,100 ft 350° 350° 10 kt METAR ESNG 271650Z 35010KT 320V030 9999 BKN011 06/03 Q0995
6:20 pm
M
43 °F 6¼ mi+ 1,400 ft 350° 350° 10 kt METAR ESNG 271620Z 35010KT 9999 -RA BKN014 06/03 Q0995
5:50 pm
M
43 °F 6¼ mi+ 1,500 ft 350° 350° 10 kt METAR ESNG 271550Z 35010KT 9999 -RA BKN015 06/04 Q0995
5:20 pm
M
43 °F 6¼ mi+ 1,500 ft 340° 340° 12 - 22 kt METAR ESNG 271520Z 34012G22KT 9999 -RA BKN015 06/04 Q0995
4:50 pm
M
45 °F 6¼ mi+ 1,500 ft 340° 340° 8 kt METAR ESNG 271450Z 34008KT 9999 -RA BKN015 07/04 Q0995
4:20 pm
M
45 °F 6¼ mi+ 1,500 ft 330° 330° 10 kt METAR ESNG 271420Z 33010KT 9999 -RA BKN015 07/04 Q0995
3:50 pm
M
45 °F 6¼ mi+ 1,700 ft 320° 320° 12 kt METAR ESNG 271350Z 32012KT 9999 -DZ BKN017 07/03 Q0995
3:20 pm
M
45 °F 6¼ mi+ 2,600 ft 310° 310° 12 kt METAR ESNG 271320Z 31012KT 9999 DZ SCT017 OVC026 07/03 Q0995
2:50 pm
M
45 °F 6¼ mi+ 1,900 ft 310° 310° 11 kt METAR ESNG 271250Z 31011KT 9999 -RA BKN019 OVC026 07/03 Q0996
2:20 pm
M
43 °F 6¼ mi+ 2,500 ft 320° 320° 11 kt METAR ESNG 271220Z AUTO 32011KT 9999 SCT018/// OVC025/// 06/03 Q0996
1:50 pm
M
43 °F 6¼ mi+ 1,600 ft 340° 340° 10 - 21 kt METAR ESNG 271150Z AUTO 34010G21KT 9999 OVC016/// 06/03 Q0996
1:20 pm
M
43 °F 6¼ mi+ 1,500 ft 340° 340° 10 kt METAR ESNG 271120Z 34010KT 9999 -RA OVC015 06/03 Q0997
12:50 pm
M
43 °F 6¼ mi+ 1,300 ft 350° 350° 11 kt METAR ESNG 271050Z 35011KT 9999 -RA BKN013 OVC024 06/03 Q0997
12:20 pm
M
43 °F 6¼ mi+ 1,300 ft 350° 350° 12 kt METAR ESNG 271020Z 35012KT 330V030 9999 OVC013 06/04 Q0997
11:50 am
M
43 °F 6¼ mi+ 1,300 ft 350° 350° 9 kt METAR ESNG 270950Z 35009KT 320V040 9999 -RA OVC013 06/04 Q0997
11:20 am
M
43 °F 6¼ mi+ 1,300 ft 330° 330° 9 kt METAR ESNG 270920Z 33009KT 300V010 9999 OVC013 06/04 Q0998
10:50 am
M
43 °F 6¼ mi+ 1,300 ft 340° 340° 11 kt METAR ESNG 270850Z 34011KT 9999 -RA BKN013 OVC020 06/04 Q0998
10:20 am
M
43 °F 6¼ mi+ 1,300 ft 330° 330° 11 kt METAR ESNG 270820Z 33011KT 9999 -RA OVC013 06/05 Q0998
9:50 am
M
45 °F 6¼ mi+ 1,300 ft 340° 340° 10 kt METAR ESNG 270750Z 34010KT 9999 -RA OVC013 07/04 Q0998
9:20 am
M
45 °F 6¼ mi+ 1,200 ft 350° 350° 9 kt METAR ESNG 270720Z 35009KT 9999 DZ BKN012 BKN017 OVC022 07/05 Q0998
8:50 am
M
46 °F 6¼ mi+ 2,300 ft 340° 340° 11 kt METAR ESNG 270650Z 34011KT 9999 -RA FEW017 BKN023 BKN029 08/05 Q0999
8:20 am
V
48 °F 6¼ mi+ 4,100 ft 350° 350° 13 kt METAR ESNG 270620Z 35013KT 320V040 9999 DZ FEW022 OVC041 09/04 Q0999
7:50 am
V
50 °F 6¼ mi+ 5,300 ft 020° 020° 13 kt METAR ESNG 270550Z 02013KT 340V050 9999 SHRA OVC053 10/03 Q0999
7:20 am
V
50 °F 6¼ mi+ - 010° 010° 8 kt METAR ESNG 270520Z 01008KT 330V050 CAVOK 10/02 Q0999
6:50 am
V
50 °F 6¼ mi+ - 360° 360° 6 kt METAR ESNG 270450Z 36006KT 330V030 CAVOK 10/01 Q0999
6:20 am
V
50 °F 6¼ mi+ - 030° 030° 5 kt METAR ESNG 270420Z 03005KT 310V070 CAVOK 10/01 Q0999
5:50 am
V
48 °F 6¼ mi+ - 270° 270° 4 kt METAR ESNG 270350Z 27004KT CAVOK 09/M00 Q0999
5:20 am
V
43 °F 6¼ mi+ - 250° 250° 4 kt METAR ESNG 270320Z 25004KT CAVOK 06/01 Q0999
4:50 am
V
41 °F 6¼ mi+ - 310° 310° 6 kt METAR ESNG 270250Z 31006KT CAVOK 05/M00 Q1000
4:20 am
V
41 °F 6¼ mi+ - 310° 310° 8 kt METAR ESNG 270220Z AUTO 31008KT 9999 FEW120/// 05/M01 Q0999
3:50 am
V
41 °F 6¼ mi+ - 310° 310° 6 kt METAR ESNG 270150Z AUTO 31006KT 9999 NCD 05/M00 Q1000
3:20 am
V
39 °F 6¼ mi+ - 320° 320° 7 kt METAR ESNG 270120Z AUTO 32007KT 9999 NCD 04/00 Q1000
2:50 am
V
39 °F 6¼ mi+ - 310° 310° 5 kt METAR ESNG 270050Z AUTO 31005KT 9999 NCD 04/00 Q1000
2:20 am
V
39 °F 6¼ mi+ - 320° 320° 4 kt METAR ESNG 270020Z AUTO 32004KT 9999 NCD 04/01 Q1000
1:50 am
V
41 °F 6¼ mi+ - 310° 310° 4 kt METAR ESNG 262350Z AUTO 31004KT 9999 NCD 05/01 Q1000
1:20 am
V
41 °F 6¼ mi+ 19,000 ft 320° 320° 4 kt METAR ESNG 262320Z AUTO 32004KT 9999 BKN190/// 05/01 Q1000
12:50 am
V
43 °F 6¼ mi+ - 330° 330° 5 kt METAR ESNG 262250Z AUTO 33005KT 9999 FEW190/// 06/01 Q1000
12:20 am
V
45 °F 6¼ mi+ - 320° 320° 5 kt METAR ESNG 262220Z AUTO 32005KT 9999 NCD 07/01 Q1000

May 26, 2022

Time Code Weather Temp. Visibility Ceiling Wind METAR/SPECI
11:50 pm
V
46 °F 6¼ mi+ - 300° 300° 6 kt METAR ESNG 262150Z AUTO 30006KT 9999 NCD 08/01 Q1000
11:20 pm
V
50 °F 6¼ mi+ - 310° 310° 5 kt METAR ESNG 262120Z AUTO 31005KT 9999 NCD 10/01 Q1000
10:50 pm
V
52 °F 6¼ mi+ - 300° 300° 6 kt METAR ESNG 262050Z AUTO 30006KT 9999 NCD 11/01 Q1000
10:20 pm
V
55 °F 6¼ mi+ - 310° 310° 4 kt METAR ESNG 262020Z AUTO 31004KT 9999 FEW080/// 13/01 Q1001
9:50 pm
V
57 °F 6¼ mi+ - 310° 310° 4 kt METAR ESNG 261950Z AUTO 31004KT 9999 FEW080/// 14/00 Q1001
9:20 pm
V
59 °F 6¼ mi+ - 300° 300° 6 kt METAR ESNG 261920Z AUTO 30006KT 9999 FEW080/// SCT094/// 15/00 Q1001
8:50 pm
V
59 °F 6¼ mi+ - 260° 260° 5 kt METAR ESNG 261850Z AUTO 26005KT 230V300 9999 NCD 15/M00 Q1001
8:20 pm
V
61 °F 6¼ mi+ - 230° 230° 6 kt METAR ESNG 261820Z AUTO 23006KT 9999 NCD 16/M00 Q1001
7:50 pm
V
61 °F 6¼ mi+ - Var Var 2 kt METAR ESNG 261750Z AUTO VRB02KT 9999 NCD 16/00 Q1001
7:20 pm
V
61 °F 6¼ mi+ - Var Var 2 kt METAR ESNG 261720Z AUTO VRB02KT 9999 SCT088/// 16/00 Q1001
6:50 pm
V
63 °F 6¼ mi+ 8,600 ft 210° 210° 3 kt METAR ESNG 261650Z AUTO 21003KT 150V300 9999 BKN086/// 17/M00 Q1001
6:20 pm
V
61 °F 6¼ mi+ - 200° 200° 6 kt METAR ESNG 261620Z AUTO 20006KT 170V240 9999 SCT086/// 16/M00 Q1001
5:50 pm
V
63 °F 6¼ mi+ 8,600 ft 190° 190° 9 kt METAR ESNG 261550Z AUTO 19009KT 9999 BKN086/// 17/M01 Q1001
5:20 pm
V
61 °F 6¼ mi+ - 200° 200° 8 kt METAR ESNG 261520Z AUTO 20008KT 160V220 9999 NCD 16/M00 Q1001
4:50 pm
V
61 °F 6¼ mi+ - 180° 180° 8 kt METAR ESNG 261450Z AUTO 18008KT 150V210 9999 SCT080/// 16/M00 Q1002
Older data

Download our app

Easy access to all aviation weather on your mobile phone and tablet.
With many features not available on the website, like offline support and a personal airport list.

We and third parties follow your internet behavior on our website with cookies. If you continue, we assume you agree with our cookie policy. Learn more